createdAt,value
2023-08-29T00:00:11.571Z,97256.88
2023-08-29T00:03:04.635Z,97190.66
2023-08-29T00:05:50.084Z,97089.72
2023-08-29T00:08:35.781Z,97091.13
2023-08-29T00:11:22.289Z,97209.88
2023-08-29T00:14:07.590Z,97243.28
2023-08-29T00:16:53.036Z,97238.38
2023-08-29T00:19:38.962Z,97225.63
2023-08-29T00:22:24.859Z,97112.50
2023-08-29T00:25:10.338Z,97239.81
2023-08-29T00:27:55.746Z,97089.03
2023-08-29T00:30:44.574Z,97253.25
2023-08-29T00:33:31.192Z,97238.38
2023-08-29T00:36:18.668Z,97118.13
2023-08-29T00:39:05.091Z,97144.41
2023-08-29T00:41:50.977Z,97224.13
2023-08-29T00:44:36.828Z,97212.72
2023-08-29T00:47:22.818Z,97219.81
2023-08-29T00:50:09.860Z,97231.09
2023-08-29T00:52:59.656Z,97179.91
2023-08-29T00:55:45.176Z,97222.56
2023-08-29T00:58:31.418Z,97066.09
2023-08-29T01:01:18.584Z,97219.72
2023-08-29T01:04:05.323Z,97177.72
2023-08-29T01:06:51.512Z,97231.03
2023-08-29T01:09:36.862Z,97219.69
2023-08-29T01:12:36.566Z,97067.47
2023-08-29T01:15:28.851Z,97124.34
2023-08-29T01:18:17.121Z,97171.38
2023-08-29T01:21:16.123Z,97067.50
2023-08-29T01:24:22.032Z,97220.44
2023-08-29T01:27:09.259Z,97223.28
2023-08-29T01:29:57.310Z,97076.03
2023-08-29T01:32:46.095Z,97216.91
2023-08-29T01:35:32.778Z,97214.06
2023-08-29T01:38:18.979Z,97211.22
2023-08-29T01:41:05.439Z,97083.84
2023-08-29T01:43:53.158Z,97223.97
2023-08-29T01:46:39.566Z,97225.38
2023-08-29T01:49:26.264Z,97221.13
2023-08-29T01:52:11.928Z,97216.81
2023-08-29T01:54:59.786Z,97207.47
2023-08-29T01:57:47.664Z,97218.88
2023-08-29T02:00:34.358Z,97213.94
2023-08-29T02:03:24.506Z,97184.03
2023-08-29T02:06:12.312Z,97212.56
2023-08-29T02:08:57.643Z,97075.22
2023-08-29T02:11:43.659Z,97203.34
2023-08-29T02:14:29.612Z,97174.19
2023-08-29T02:17:15.582Z,97206.88
2023-08-29T02:20:01.312Z,97212.50
2023-08-29T02:22:46.937Z,97186.97
2023-08-29T02:25:32.987Z,97196.91
2023-08-29T02:28:19.044Z,97078.78
2023-08-29T02:31:11.492Z,97203.97
2023-08-29T02:33:57.258Z,97188.31
2023-08-29T02:36:43.868Z,97124.34
2023-08-29T02:39:30.205Z,97189.03
2023-08-29T02:42:15.970Z,97036.03
2023-08-29T02:45:01.765Z,97188.31
2023-08-29T02:47:47.744Z,97165.53
2023-08-29T02:50:35.046Z,97139.94
2023-08-29T02:53:21.919Z,97169.13
2023-08-29T02:56:07.296Z,97162.75
2023-08-29T02:58:53.487Z,97122.91
2023-08-29T03:01:39.611Z,97155.63
2023-08-29T03:04:25.270Z,97167.03
2023-08-29T03:07:11.110Z,97104.38
2023-08-29T03:09:57.060Z,97073.75
2023-08-29T03:12:42.973Z,97173.34
2023-08-29T03:15:35.837Z,97169.09
2023-08-29T03:18:21.190Z,97158.41
2023-08-29T03:21:10.800Z,97061.56
2023-08-29T03:23:56.902Z,97152.69
2023-08-29T03:26:42.279Z,97108.63
2023-08-29T03:29:27.679Z,97151.25
2023-08-29T03:32:14.006Z,97118.47
2023-08-29T03:34:59.869Z,97151.19
2023-08-29T03:37:46.116Z,97146.09
2023-08-29T03:40:31.853Z,97144.63
2023-08-29T03:43:17.433Z,97182.06
2023-08-29T03:46:07.663Z,97159.31
2023-08-29T03:48:53.253Z,97171.31
2023-08-29T03:51:38.700Z,97045.13
2023-08-29T03:54:24.187Z,97174.72
2023-08-29T03:57:09.796Z,97171.84
2023-08-29T03:59:55.462Z,97135.56
2023-08-29T04:02:41.541Z,97174.72
2023-08-29T04:05:28.568Z,97093.56
2023-08-29T04:08:13.842Z,97166.25
2023-08-29T04:11:04.670Z,97153.47
2023-08-29T04:13:51.047Z,97143.44
2023-08-29T04:16:37.558Z,97158.41
2023-08-29T04:19:24.214Z,97072.25
2023-08-29T04:22:09.905Z,97043.84
2023-08-29T04:24:55.328Z,97127.22
2023-08-29T04:27:41.136Z,97177.84
2023-08-29T04:30:26.720Z,97158.09
2023-08-29T04:33:12.309Z,97175.16
2023-08-29T04:35:58.062Z,97146.91
2023-08-29T04:38:46.396Z,97154.00
2023-08-29T04:41:31.757Z,97149.09
2023-08-29T04:44:17.611Z,97161.16
2023-08-29T04:47:05.094Z,97155.63
2023-08-29T04:49:51.060Z,97145.72
2023-08-29T04:52:37.705Z,97155.81
2023-08-29T04:55:23.405Z,97180.69
2023-08-29T04:58:09.940Z,97155.97
2023-08-29T05:00:56.260Z,97149.66
2023-08-29T05:03:42.722Z,97003.34
2023-08-29T05:06:28.417Z,97016.91
2023-08-29T05:09:14.774Z,97159.13
2023-08-29T05:12:00.650Z,97018.56
2023-08-29T05:14:46.356Z,97159.94
2023-08-29T05:17:32.038Z,97060.56
2023-08-29T05:20:18.490Z,97132.22
2023-08-29T05:23:04.351Z,97152.78
2023-08-29T05:25:50.752Z,97037.84
2023-08-29T05:28:36.394Z,97114.38
2023-08-29T05:31:22.850Z,97149.09
2023-08-29T05:34:09.002Z,97137.66
2023-08-29T05:36:55.046Z,97119.16
2023-08-29T05:39:40.934Z,97138.91
2023-08-29T05:42:28.548Z,97117.63
2023-08-29T05:45:16.603Z,97142.34
2023-08-29T05:48:03.145Z,97114.69
2023-08-29T05:50:52.551Z,97132.91
2023-08-29T05:53:38.476Z,97142.72
2023-08-29T05:56:24.583Z,97132.66
2023-08-29T05:59:10.045Z,97125.50
2023-08-29T06:01:55.870Z,97107.00
2023-08-29T06:04:41.697Z,97134.47
2023-08-29T06:07:27.787Z,97131.53
2023-08-29T06:10:13.879Z,97131.47
2023-08-29T06:12:59.995Z,97124.88
2023-08-29T06:15:46.691Z,97126.16
2023-08-29T06:18:34.552Z,97118.97
2023-08-29T06:21:22.000Z,97133.84
2023-08-29T06:24:08.321Z,97130.31
2023-08-29T06:26:54.012Z,97071.09
2023-08-29T06:29:40.426Z,97117.59
2023-08-29T06:32:27.214Z,96993.22
2023-08-29T06:35:12.905Z,97136.91
2023-08-29T06:37:58.138Z,97075.31
2023-08-29T06:40:44.005Z,97007.50
2023-08-29T06:43:31.301Z,97117.69
2023-08-29T06:46:17.495Z,97001.69
2023-08-29T06:49:03.769Z,97122.50
2023-08-29T06:51:51.220Z,97118.16
2023-08-29T06:54:37.758Z,97125.84
2023-08-29T06:57:23.282Z,97009.97
2023-08-29T07:00:12.181Z,97128.69
2023-08-29T07:02:57.796Z,97127.44
2023-08-29T07:05:43.084Z,97009.91
2023-08-29T07:08:28.589Z,97118.72
2023-08-29T07:11:15.255Z,97120.03
2023-08-29T07:14:00.840Z,96995.59
2023-08-29T07:16:53.558Z,97083.81
2023-08-29T07:19:50.034Z,97036.38
2023-08-29T07:22:41.782Z,97080.69
2023-08-29T07:25:40.175Z,96990.22
2023-08-29T07:28:26.369Z,97115.09
2023-08-29T07:31:12.275Z,97110.72
2023-08-29T07:33:57.652Z,97116.25
2023-08-29T07:36:44.382Z,97096.34
2023-08-29T07:39:29.879Z,97128.72
2023-08-29T07:42:15.661Z,97098.13
2023-08-29T07:45:01.561Z,97078.81
2023-08-29T07:47:46.916Z,97003.97
2023-08-29T07:50:32.405Z,97071.56
2023-08-29T07:53:17.890Z,97122.78
2023-08-29T07:56:04.425Z,97096.50
2023-08-29T07:58:50.680Z,97110.34
2023-08-29T08:01:36.523Z,97124.63
2023-08-29T08:04:22.366Z,97104.59
2023-08-29T08:07:08.105Z,97099.53
2023-08-29T08:09:53.424Z,96988.09
2023-08-29T08:12:41.292Z,97102.97
2023-08-29T08:15:26.803Z,96992.31
2023-08-29T08:18:12.374Z,97107.13
2023-08-29T08:20:57.820Z,97102.91
2023-08-29T08:23:43.348Z,96994.19
2023-08-29T08:26:28.813Z,97107.50
2023-08-29T08:29:14.362Z,97118.16
2023-08-29T08:32:00.174Z,97098.28
2023-08-29T08:34:46.031Z,97122.94
2023-08-29T08:37:36.230Z,97088.22
2023-08-29T08:40:22.045Z,97003.69
2023-08-29T08:43:10.788Z,97118.31
2023-08-29T08:45:57.900Z,97087.75
2023-08-29T08:48:43.962Z,97110.09
2023-08-29T08:51:31.861Z,97111.44
2023-08-29T08:54:17.390Z,97114.06
2023-08-29T08:57:02.686Z,97104.22
2023-08-29T08:59:48.228Z,97025.75
2023-08-29T09:02:35.304Z,97082.78
2023-08-29T09:05:22.012Z,97124.84
2023-08-29T09:08:08.186Z,97003.75
2023-08-29T09:10:54.580Z,96992.56
2023-08-29T09:13:50.048Z,97132.28
2023-08-29T09:16:39.373Z,97120.72
2023-08-29T09:19:26.057Z,97120.00
2023-08-29T09:22:12.003Z,97037.03
2023-08-29T09:25:04.312Z,97116.41
2023-08-29T09:27:50.386Z,97098.09
2023-08-29T09:30:42.652Z,97119.09
2023-08-29T09:33:28.810Z,97119.09
2023-08-29T09:36:14.641Z,97123.31
2023-08-29T09:39:00.188Z,97128.97
2023-08-29T09:41:59.535Z,97096.78
2023-08-29T09:44:45.206Z,97116.78
2023-08-29T09:47:30.637Z,97118.81
2023-08-29T09:50:16.358Z,97118.81
2023-08-29T09:53:02.904Z,97112.38
2023-08-29T09:55:55.282Z,97102.50
2023-08-29T09:58:42.646Z,97010.19
2023-08-29T10:01:29.073Z,97114.16
2023-08-29T10:04:22.270Z,97149.19
2023-08-29T10:07:13.442Z,97116.19
2023-08-29T10:10:00.372Z,97032.94
2023-08-29T10:12:47.296Z,97116.38
2023-08-29T10:15:38.646Z,97144.69
2023-08-29T10:18:27.128Z,97128.78
2023-08-29T10:21:13.966Z,97090.56
2023-08-29T10:24:00.856Z,97031.50
2023-08-29T10:26:47.134Z,97128.63
2023-08-29T10:29:33.858Z,97063.88
2023-08-29T10:32:21.095Z,97134.41
2023-08-29T10:35:07.839Z,97132.91
2023-08-29T10:37:54.041Z,97010.28
2023-08-29T10:40:40.374Z,97124.34
2023-08-29T10:43:27.288Z,97104.78
2023-08-29T10:46:15.402Z,97122.31
2023-08-29T10:49:00.665Z,97117.91
2023-08-29T10:52:12.595Z,97126.34
2023-08-29T10:55:22.465Z,97116.22
2023-08-29T10:58:38.874Z,97124.72
2023-08-29T11:01:28.391Z,97137.56
2023-08-29T11:04:17.624Z,97106.25
2023-08-29T11:07:03.675Z,97122.25
2023-08-29T11:09:49.694Z,97119.34
2023-08-29T11:12:35.438Z,97101.88
2023-08-29T11:15:22.381Z,97127.19
2023-08-29T11:18:28.381Z,97136.50
2023-08-29T11:21:18.981Z,97104.66
2023-08-29T11:26:58.544Z,97097.47
2023-08-29T11:29:45.099Z,97111.28
2023-08-29T11:32:31.593Z,97118.50
2023-08-29T11:35:17.300Z,97123.44
2023-08-29T11:38:03.177Z,97116.84
2023-08-29T11:40:56.205Z,97116.72
2023-08-29T11:44:33.966Z,97110.03
2023-08-29T11:47:02.777Z,97100.53
2023-08-29T11:49:57.144Z,97100.97
2023-08-29T11:52:43.081Z,97082.56
2023-08-29T11:55:32.421Z,97096.63
2023-08-29T11:58:18.848Z,97090.19
2023-08-29T12:01:06.115Z,97075.56
2023-08-29T12:03:52.233Z,97096.69
2023-08-29T12:06:38.025Z,97085.91
2023-08-29T12:09:24.584Z,97012.22
2023-08-29T12:12:33.933Z,97107.34
2023-08-29T12:15:30.900Z,97104.47
2023-08-29T12:18:26.597Z,97015.41
2023-08-29T12:21:19.908Z,97079.19
2023-08-29T12:24:11.044Z,97098.66
2023-08-29T12:26:56.593Z,97002.66
2023-08-29T12:29:42.455Z,97047.22
2023-08-29T12:32:29.452Z,97100.13
2023-08-29T12:35:16.972Z,97071.34
2023-08-29T12:38:03.401Z,96995.50
2023-08-29T12:40:48.979Z,97075.56
2023-08-29T12:43:34.219Z,97089.03
2023-08-29T12:46:20.593Z,97072.97
2023-08-29T12:49:06.363Z,97111.75
2023-08-29T12:51:52.146Z,97070.75
2023-08-29T12:54:38.268Z,97116.03
2023-08-29T12:57:24.228Z,97098.72
2023-08-29T13:00:11.592Z,97108.03
2023-08-29T13:02:58.704Z,96983.56
2023-08-29T13:05:44.925Z,97111.63
2023-08-29T13:08:30.409Z,97084.56
2023-08-29T13:11:16.124Z,97091.50
2023-08-29T13:14:02.224Z,97092.28
2023-08-29T13:16:47.997Z,97092.53
2023-08-29T13:19:34.885Z,97087.22
2023-08-29T13:22:22.093Z,97092.28
2023-08-29T13:25:11.842Z,97103.19
2023-08-29T13:27:58.988Z,97080.97
2023-08-29T13:30:44.877Z,97082.38
2023-08-29T13:33:32.228Z,97096.03
2023-08-29T13:36:18.047Z,97042.44
2023-08-29T13:39:03.884Z,97085.97
2023-08-29T13:41:49.956Z,97024.03
2023-08-29T13:44:36.209Z,96984.75
2023-08-29T13:47:21.947Z,97053.53
2023-08-29T13:50:08.858Z,97068.84
2023-08-29T13:52:57.163Z,96915.78
2023-08-29T13:55:43.429Z,97061.69
2023-08-29T13:58:29.280Z,97068.81
2023-08-29T14:01:14.838Z,96974.28
2023-08-29T14:04:00.590Z,96989.56
2023-08-29T14:06:45.905Z,97060.03
2023-08-29T14:09:31.603Z,96952.84
2023-08-29T14:12:17.109Z,97042.09
2023-08-29T14:15:03.009Z,97003.13
2023-08-29T14:17:51.798Z,97014.34
2023-08-29T14:20:45.671Z,97039.72
2023-08-29T14:23:31.341Z,97001.56
2023-08-29T14:26:17.025Z,96918.53
2023-08-29T14:29:02.721Z,97011.06
2023-08-29T14:31:48.564Z,97020.38
2023-08-29T14:34:34.107Z,97012.72
2023-08-29T14:37:19.716Z,97001.88
2023-08-29T14:40:06.276Z,97002.44
2023-08-29T14:42:51.732Z,96993.97
2023-08-29T14:45:41.320Z,96977.19
2023-08-29T14:48:27.012Z,96985.59
2023-08-29T14:51:12.675Z,96933.19
2023-08-29T14:54:03.535Z,97000.88
2023-08-29T14:56:49.520Z,97001.84
2023-08-29T14:59:35.575Z,96996.28
2023-08-29T15:02:21.282Z,96987.41
2023-08-29T15:05:07.593Z,96901.03
2023-08-29T15:07:53.480Z,96974.91
2023-08-29T15:10:39.102Z,96885.72
2023-08-29T15:13:29.626Z,96960.25
2023-08-29T15:16:17.379Z,96987.75
2023-08-29T15:19:03.514Z,96852.28
2023-08-29T15:21:49.257Z,96973.19
2023-08-29T15:24:34.910Z,96977.72
2023-08-29T15:27:21.050Z,96973.69
2023-08-29T15:30:09.424Z,96971.16
2023-08-29T15:32:56.759Z,96971.34
2023-08-29T15:35:46.982Z,96835.28
2023-08-29T15:38:34.922Z,96957.47
2023-08-29T15:41:22.945Z,96959.94
2023-08-29T15:44:08.748Z,96979.59
2023-08-29T15:46:55.114Z,96967.03
2023-08-29T15:49:41.816Z,96968.72
2023-08-29T15:52:27.749Z,96917.03
2023-08-29T15:55:13.737Z,96942.00
2023-08-29T15:58:00.539Z,96975.41
2023-08-29T16:00:46.256Z,96975.59
2023-08-29T16:03:32.356Z,96978.78
2023-08-29T16:06:18.669Z,96964.97
2023-08-29T16:09:04.573Z,96990.81
2023-08-29T16:11:51.633Z,96977.66
2023-08-29T16:14:37.349Z,96872.84
2023-08-29T16:17:23.057Z,97012.56
2023-08-29T16:20:12.890Z,97057.13
2023-08-29T16:22:59.482Z,97043.47
2023-08-29T16:25:45.138Z,97026.72
2023-08-29T16:28:31.738Z,97021.28
2023-08-29T16:31:17.230Z,96881.59
2023-08-29T16:34:03.655Z,97016.84
2023-08-29T16:36:49.496Z,97021.13
2023-08-29T16:39:34.984Z,97019.13
2023-08-29T16:42:21.112Z,96923.50
2023-08-29T16:45:07.686Z,96979.78
2023-08-29T16:47:55.522Z,97006.78
2023-08-29T16:50:41.405Z,96978.44
2023-08-29T16:53:27.153Z,96966.13
2023-08-29T16:56:13.002Z,96860.16
2023-08-29T16:59:00.263Z,97002.19
2023-08-29T17:01:45.840Z,96997.00
2023-08-29T17:04:31.459Z,97036.47
2023-08-29T17:07:17.062Z,97000.56
2023-08-29T17:10:02.979Z,97031.97
2023-08-29T17:12:48.555Z,96843.56
2023-08-29T17:15:34.209Z,97027.63
2023-08-29T17:18:23.013Z,97027.84
2023-08-29T17:21:08.704Z,97092.69
2023-08-29T17:23:54.284Z,97008.00
2023-08-29T17:26:40.938Z,97078.81
2023-08-29T17:29:27.162Z,97102.38
2023-08-29T17:32:12.934Z,97103.38
2023-08-29T17:34:59.167Z,97138.84
2023-08-29T17:37:45.626Z,97120.41
2023-08-29T17:40:31.159Z,97068.63
2023-08-29T17:43:16.513Z,97086.34
2023-08-29T17:46:03.586Z,96937.66
2023-08-29T17:48:50.076Z,97058.66
2023-08-29T17:51:36.606Z,97049.56
2023-08-29T17:54:22.423Z,97049.63
2023-08-29T17:57:08.251Z,97039.75
2023-08-29T17:59:55.730Z,97029.84
2023-08-29T18:02:41.852Z,97038.34
2023-08-29T18:05:27.842Z,97028.38
2023-08-29T18:08:14.092Z,97026.91
2023-08-29T18:11:00.029Z,97002.88
2023-08-29T18:13:46.250Z,97017.00
2023-08-29T18:16:31.756Z,97035.44
2023-08-29T18:19:18.199Z,97034.03
2023-08-29T18:22:04.117Z,97029.06
2023-08-29T18:24:49.789Z,97018.44
2023-08-29T18:27:36.231Z,96985.97
2023-08-29T18:30:22.326Z,97079.63
2023-08-29T18:33:08.277Z,97082.50
2023-08-29T18:35:54.317Z,97120.88
2023-08-29T18:38:40.214Z,97130.81
2023-08-29T18:41:26.019Z,97105.97
2023-08-29T18:44:11.999Z,97052.06
2023-08-29T18:46:57.409Z,97128.69
2023-08-29T18:49:43.312Z,97114.50
2023-08-29T18:52:29.731Z,97069.81
2023-08-29T18:55:15.410Z,97118.06
2023-08-29T18:58:00.702Z,97109.53
2023-08-29T19:00:49.080Z,97108.09
2023-08-29T19:03:35.407Z,97099.59
2023-08-29T19:06:21.840Z,97137.94
2023-08-29T19:09:07.905Z,97127.97
2023-08-29T19:11:53.701Z,97103.84
2023-08-29T19:14:40.021Z,96983.28
2023-08-29T19:17:26.869Z,97129.41
2023-08-29T19:20:12.537Z,97086.81
2023-08-29T19:22:58.521Z,97119.44
2023-08-29T19:25:43.809Z,96976.19
2023-08-29T19:28:29.075Z,96954.91
2023-08-29T19:31:16.420Z,96987.50
2023-08-29T19:34:02.080Z,97101.00
2023-08-29T19:36:47.598Z,97107.41
2023-08-29T19:39:33.438Z,97010.91
2023-08-29T19:42:19.212Z,97081.16
2023-08-29T19:45:05.452Z,96964.13
2023-08-29T19:47:52.169Z,97119.47
2023-08-29T19:50:38.015Z,97110.97
2023-08-29T19:53:24.096Z,96986.03
2023-08-29T19:56:15.925Z,97142.91
2023-08-29T19:59:04.697Z,97183.31
2023-08-29T20:01:51.052Z,97222.94
2023-08-29T20:04:36.785Z,97067.78
2023-08-29T20:07:23.158Z,97140.25
2023-08-29T20:10:09.208Z,97107.53
2023-08-29T20:12:55.417Z,97053.59
2023-08-29T20:15:45.420Z,97114.09
2023-08-29T20:18:31.389Z,97134.81
2023-08-29T20:21:18.160Z,97114.22
2023-08-29T20:24:05.004Z,96999.69
2023-08-29T20:26:51.796Z,97076.22
2023-08-29T20:29:37.534Z,97150.06
2023-08-29T20:32:23.760Z,97142.28
2023-08-29T20:35:09.578Z,96992.22
2023-08-29T20:37:58.765Z,97051.88
2023-08-29T20:40:44.549Z,97280.41
2023-08-29T20:43:31.246Z,97388.72
2023-08-29T20:46:17.163Z,97387.91
2023-08-29T20:49:03.512Z,97370.81
2023-08-29T20:51:49.551Z,97340.88
2023-08-29T20:54:36.713Z,97190.16
2023-08-29T20:57:22.732Z,97259.47
2023-08-29T21:00:09.252Z,97244.41
2023-08-29T21:02:56.288Z,97254.50
2023-08-29T21:05:42.373Z,97223.19
2023-08-29T21:08:28.726Z,96778.63
2023-08-29T21:11:14.394Z,97127.63
2023-08-29T21:14:00.172Z,97244.63
2023-08-29T21:16:47.385Z,97224.88
2023-08-29T21:19:33.212Z,97210.72
2023-08-29T21:22:19.443Z,97182.28
2023-08-29T21:25:05.969Z,97215.06
2023-08-29T21:27:52.179Z,97119.78
2023-08-29T21:30:40.397Z,97214.44
2023-08-29T21:33:25.892Z,97200.94
2023-08-29T21:36:11.640Z,97226.44
2023-08-29T21:39:03.420Z,97236.38
2023-08-29T21:41:49.496Z,97273.16
2023-08-29T21:44:35.042Z,97164.66
2023-08-29T21:47:20.961Z,97270.22
2023-08-29T21:50:08.079Z,97252.97
2023-08-29T21:52:54.024Z,97145.22
2023-08-29T21:55:41.899Z,97133.16
2023-08-29T21:58:27.800Z,97142.63
2023-08-29T22:01:13.425Z,97257.34
2023-08-29T22:03:58.956Z,97252.31
2023-08-29T22:06:44.817Z,97125.94
2023-08-29T22:09:30.171Z,97256.38
2023-08-29T22:12:15.627Z,97272.03
2023-08-29T22:15:00.982Z,97278.38
2023-08-29T22:17:46.489Z,97248.53
2023-08-29T22:20:32.505Z,97247.16
2023-08-29T22:23:17.952Z,97082.06
2023-08-29T22:26:09.838Z,97196.88
2023-08-29T22:28:55.487Z,97120.75
2023-08-29T22:31:41.390Z,97176.41
2023-08-29T22:34:27.625Z,97164.34
2023-08-29T22:37:17.080Z,97145.13
2023-08-29T22:40:03.372Z,97009.94
2023-08-29T22:42:49.698Z,97130.28
2023-08-29T22:45:35.231Z,97101.00
2023-08-29T22:48:20.980Z,97011.28
2023-08-29T22:51:07.746Z,97128.00
2023-08-29T22:53:53.974Z,97169.72
2023-08-29T22:56:39.835Z,97150.63
2023-08-29T22:59:27.221Z,97019.47
2023-08-29T23:02:13.608Z,97026.44
2023-08-29T23:04:59.314Z,97158.91
2023-08-29T23:07:45.888Z,97154.56
2023-08-29T23:10:32.998Z,97169.44
2023-08-29T23:13:19.782Z,97024.38
2023-08-29T23:16:05.753Z,97157.56
2023-08-29T23:18:52.203Z,97140.53
2023-08-29T23:21:39.058Z,97139.25
2023-08-29T23:24:25.935Z,97141.38
2023-08-29T23:27:12.540Z,97145.66
2023-08-29T23:29:59.652Z,97153.47
2023-08-29T23:32:49.216Z,97182.34
2023-08-29T23:35:35.367Z,97038.81
2023-08-29T23:38:21.668Z,97064.31
2023-08-29T23:41:08.459Z,97208.06
2023-08-29T23:43:55.539Z,97220.03
2023-08-29T23:46:42.453Z,97215.09
2023-08-29T23:49:29.032Z,97219.31
2023-08-29T23:52:15.009Z,97162.28
2023-08-29T23:55:00.473Z,97195.75
